Wetterdaten: Woche 04.01.10 - 10.01.10 (KW1)
Datum Zeit Temp. Innen Temp. Aussen UV X Diff Temp. Feuchte Inne Feuchte Auss Sonnenschein Luftdruck Regen ab 0,1 Wind Sonnenschein Windben
04.01.2010 00:00 9,7 C -3,6 C 0,0 UV-I 0,0 C 42 % 91 % 0 % 1020,2 hPa 0,0 l/m 0,0 km/h (0 Bft) 0,00 h 0,0 km/h (0 Bft)
04.01.2010 01:00 9,6 C -3,7 C 0,0 UV-I 0,0 C 42 % 91 % 0 % 1019,8 hPa 0,0 l/m 0,0 km/h (0 Bft) 0,00 h 0,0 km/h (0 Bft)
04.01.2010 02:00 9,7 C -3,7 C 0,0 UV-I 0,0 C 42 % 90 % 0 % 1019,1 hPa 0,0 l/m 0,0 km/h (0 Bft) 0,00 h 0,0 km/h (0 Bft)
04.01.2010 03:00 9,6 C -3,8 C 0,0 UV-I 0,0 C 42 % 90 % 0 % 1019,2 hPa 0,0 l/m 0,1 km/h (0 Bft) 0,00 h 0,5 km/h (0 Bft)
04.01.2010 04:00 9,6 C -4,4 C 0,0 UV-I 0,0 C 42 % 89 % 0 % 1018,5 hPa 0,0 l/m 0,1 km/h (0 Bft) 0,00 h 0,2 km/h (0 Bft)
04.01.2010 05:00 9,5 C -5,3 C 0,0 UV-I 0,0 C 41 % 89 % 0 % 1017,9 hPa 0,0 l/m 0,0 km/h (0 Bft) 0,00 h 0,0 km/h (0 Bft)
04.01.2010 06:00 9,3 C -6,3 C 0,0 UV-I 0,0 C 40 % 90 % 0 % 1017,7 hPa 0,0 l/m 0,0 km/h (0 Bft) 0,00 h 0,0 km/h (0 Bft)
04.01.2010 07:00 9,2 C -6,7 C 0,0 UV-I 0,0 C 40 % 91 % 0 % 1017,4 hPa 0,0 l/m 0,0 km/h (0 Bft) 0,00 h 0,0 km/h (0 Bft)
04.01.2010 08:00 9,3 C -6,5 C 0,0 UV-I 0,0 C 40 % 91 % 0 % 1017,1 hPa 0,0 l/m 0,0 km/h (0 Bft) 0,00 h 0,0 km/h (0 Bft)
04.01.2010 09:00 9,6 C -5,8 C 0,0 UV-I 0,0 C 41 % 92 % 0 % 1017,0 hPa 0,0 l/m 0,0 km/h (0 Bft) 0,00 h 0,0 km/h (0 Bft)
04.01.2010 10:00 9,7 C -4,9 C 0,0 UV-I 0,1 C 41 % 92 % 4 % 1016,9 hPa 0,0 l/m 0,2 km/h (0 Bft) 0,00 h 0,6 km/h (0 Bft)
04.01.2010 11:00 9,9 C -4,1 C 0,0 UV-I 0,3 C 41 % 90 % 8 % 1016,7 hPa 0,0 l/m 0,4 km/h (0 Bft) 0,00 h 1,0 km/h (0 Bft)
04.01.2010 12:00 10,0 C -3,3 C 0,0 UV-I 0,7 C 41 % 89 % 19 % 1015,9 hPa 0,0 l/m 0,6 km/h (0 Bft) 0,00 h 1,4 km/h (1 Bft)
04.01.2010 13:00 10,0 C -2,5 C 0,0 UV-I 3,9 C 40 % 86 % 94 % 1015,5 hPa 0,0 l/m 1,5 km/h (1 Bft) 0,82 h 2,5 km/h (1 Bft)
04.01.2010 14:00 10,5 C -2,3 C 0,0 UV-I 2,0 C 38 % 83 % 55 % 1015,3 hPa 0,3 l/m 2,1 km/h (1 Bft) 0,53 h 4,7 km/h (1 Bft)
04.01.2010 15:00 10,2 C -2,7 C 0,0 UV-I 0,0 C 38 % 83 % 0 % 1014,1 hPa 0,0 l/m 1,6 km/h (1 Bft) 0,00 h 2,6 km/h (1 Bft)
04.01.2010 16:00 9,8 C -2,9 C 0,0 UV-I 0,0 C 39 % 84 % 0 % 1013,5 hPa 0,0 l/m 1,3 km/h (1 Bft) 0,00 h 2,4 km/h (1 Bft)
04.01.2010 17:00 9,6 C -2,9 C 0,0 UV-I 0,0 C 40 % 85 % 0 % 1012,5 hPa 0,0 l/m 2,6 km/h (1 Bft) 0,00 h 3,7 km/h (1 Bft)
04.01.2010 18:00 9,6 C -2,9 C 0,0 UV-I 0,0 C 40 % 86 % 0 % 1011,7 hPa 0,0 l/m 4,1 km/h (1 Bft) 0,00 h 5,5 km/h (1 Bft)
04.01.2010 19:00 9,6 C -2,9 C 0,0 UV-I 0,0 C 41 % 87 % 0 % 1011,4 hPa 0,0 l/m 3,6 km/h (1 Bft) 0,00 h 4,8 km/h (1 Bft)
04.01.2010 20:00 9,6 C -2,7 C 0,0 UV-I 0,0 C 41 % 88 % 0 % 1010,9 hPa 0,0 l/m 2,2 km/h (1 Bft) 0,00 h 3,5 km/h (1 Bft)
04.01.2010 21:00 9,6 C -2,6 C 0,0 UV-I 0,0 C 41 % 89 % 0 % 1010,7 hPa 0,0 l/m 1,8 km/h (1 Bft) 0,00 h 2,6 km/h (1 Bft)
04.01.2010 22:00 9,7 C -2,5 C 0,0 UV-I 0,0 C 42 % 90 % 0 % 1010,5 hPa 0,0 l/m 3,2 km/h (1 Bft) 0,00 h 4,8 km/h (1 Bft)
04.01.2010 23:00 9,8 C -2,3 C 0,0 UV-I 0,0 C 42 % 90 % 0 % 1009,9 hPa 0,0 l/m 2,5 km/h (1 Bft) 0,00 h 3,5 km/h (1 Bft)
05.01.2010 00:00 9,8 C -2,3 C 0,0 UV-I 0,0 C 43 % 91 % 0 % 1009,6 hPa 0,0 l/m 3,9 km/h (1 Bft) 0,00 h 5,9 km/h (2 Bft)
05.01.2010 01:00 9,9 C -2,1 C 0,0 UV-I 0,0 C 43 % 91 % 0 % 1008,7 hPa 0,0 l/m 2,6 km/h (1 Bft) 0,00 h 3,9 km/h (1 Bft)
05.01.2010 02:00 9,9 C -2,1 C 0,0 UV-I 0,0 C 43 % 92 % 0 % 1008,2 hPa 0,0 l/m 3,4 km/h (1 Bft) 0,00 h 4,0 km/h (1 Bft)
05.01.2010 03:00 9,9 C -2,0 C 0,0 UV-I 0,0 C 44 % 92 % 0 % 1008,1 hPa 0,0 l/m 1,9 km/h (1 Bft) 0,00 h 2,9 km/h (1 Bft)
05.01.2010 04:00 10,0 C -1,9 C 0,0 UV-I 0,0 C 44 % 93 % 0 % 1007,4 hPa 0,0 l/m 3,0 km/h (1 Bft) 0,00 h 4,1 km/h (1 Bft)
05.01.2010 05:00 10,0 C -1,9 C 0,0 UV-I 0,0 C 44 % 93 % 0 % 1006,7 hPa 0,0 l/m 0,6 km/h (0 Bft) 0,00 h 1,0 km/h (0 Bft)
05.01.2010 06:00 10,0 C -2,0 C 0,0 UV-I 0,0 C 44 % 93 % 0 % 1006,1 hPa 0,0 l/m 1,9 km/h (1 Bft) 0,00 h 2,9 km/h (1 Bft)
05.01.2010 07:00 9,9 C -2,1 C 0,0 UV-I 0,0 C 44 % 93 % 0 % 1005,5 hPa 0,0 l/m 2,1 km/h (1 Bft) 0,00 h 2,9 km/h (1 Bft)
05.01.2010 08:00 9,9 C -2,1 C 0,0 UV-I 0,0 C 44 % 93 % 0 % 1005,5 hPa 0,0 l/m 2,7 km/h (1 Bft) 0,00 h 3,6 km/h (1 Bft)
05.01.2010 09:00 9,9 C -1,9 C 0,0 UV-I 0,0 C 44 % 93 % 0 % 1005,5 hPa 0,0 l/m 1,8 km/h (1 Bft) 0,00 h 2,7 km/h (1 Bft)
05.01.2010 10:00 9,9 C -1,6 C 0,0 UV-I 0,0 C 44 % 93 % 0 % 1005,3 hPa 0,0 l/m 1,6 km/h (1 Bft) 0,00 h 2,9 km/h (1 Bft)
05.01.2010 11:00 10,0 C -1,0 C 0,0 UV-I 0,0 C 45 % 92 % 0 % 1004,7 hPa 0,0 l/m 1,4 km/h (1 Bft) 0,00 h 2,0 km/h (1 Bft)
05.01.2010 12:00 10,0 C -0,8 C 0,0 UV-I 0,0 C 45 % 92 % 0 % 1004,2 hPa 0,0 l/m 0,3 km/h (0 Bft) 0,00 h 0,6 km/h (0 Bft)
05.01.2010 13:00 9,9 C -0,6 C 0,0 UV-I 0,0 C 45 % 91 % 0 % 1003,8 hPa 0,0 l/m 1,2 km/h (1 Bft) 0,00 h 1,8 km/h (1 Bft)
05.01.2010 14:00 9,9 C -0,6 C 0,0 UV-I 0,0 C 45 % 91 % 0 % 1003,0 hPa 0,0 l/m 1,4 km/h (1 Bft) 0,00 h 2,5 km/h (1 Bft)
05.01.2010 15:00 10,0 C -0,7 C 0,0 UV-I 0,0 C 45 % 90 % 0 % 1002,9 hPa 0,0 l/m 1,2 km/h (1 Bft) 0,00 h 2,0 km/h (1 Bft)
05.01.2010 16:00 9,9 C -0,9 C 0,0 UV-I 0,0 C 45 % 90 % 0 % 1002,7 hPa 0,0 l/m 0,3 km/h (0 Bft) 0,00 h 0,6 km/h (0 Bft)
05.01.2010 17:00 9,9 C -1,0 C 0,0 UV-I 0,0 C 45 % 90 % 0 % 1002,5 hPa 0,0 l/m 0,7 km/h (0 Bft) 0,00 h 1,4 km/h (1 Bft)
05.01.2010 18:00 9,8 C -1,4 C 0,0 UV-I 0,0 C 45 % 90 % 0 % 1002,1 hPa 0,0 l/m 1,4 km/h (1 Bft) 0,00 h 2,5 km/h (1 Bft)
05.01.2010 19:00 9,7 C -1,9 C 0,0 UV-I 0,0 C 44 % 89 % 0 % 1001,9 hPa 0,0 l/m 0,7 km/h (0 Bft) 0,00 h 1,3 km/h (1 Bft)
05.01.2010 20:00 9,6 C -2,6 C 0,0 UV-I 0,0 C 44 % 91 % 0 % 1001,7 hPa 0,0 l/m 0,6 km/h (0 Bft) 0,00 h 1,5 km/h (1 Bft)
05.01.2010 21:00 9,4 C -3,2 C 0,0 UV-I 0,0 C 44 % 90 % 0 % 1001,4 hPa 0,0 l/m 0,0 km/h (0 Bft) 0,00 h 0,2 km/h (0 Bft)
05.01.2010 22:00 9,3 C -3,7 C 0,0 UV-I 0,0 C 43 % 91 % 0 % 1001,2 hPa 0,0 l/m 0,6 km/h (0 Bft) 0,00 h 1,4 km/h (1 Bft)
05.01.2010 23:00 9,2 C -4,0 C 0,0 UV-I 0,0 C 43 % 91 % 0 % 1001,3 hPa 0,0 l/m 0,6 km/h (0 Bft) 0,00 h 1,5 km/h (1 Bft)
06.01.2010 00:00 9,2 C -4,1 C 0,0 UV-I 0,0 C 42 % 90 % 0 % 1000,5 hPa 0,0 l/m 2,2 km/h (1 Bft) 0,00 h 3,8 km/h (1 Bft)
06.01.2010 01:00 9,2 C -4,4 C 0,0 UV-I 0,0 C 42 % 89 % 0 % 1000,0 hPa 0,0 l/m 0,2 km/h (0 Bft) 0,00 h 0,2 km/h (0 Bft)
06.01.2010 02:00 9,1 C -4,8 C 0,0 UV-I 0,0 C 41 % 89 % 0 % 1000,2 hPa 0,0 l/m 0,4 km/h (0 Bft) 0,00 h 0,9 km/h (0 Bft)
06.01.2010 03:00 9,0 C -5,2 C 0,0 UV-I 0,0 C 41 % 89 % 0 % 1000,3 hPa 0,0 l/m 0,0 km/h (0 Bft) 0,00 h 0,0 km/h (0 Bft)
06.01.2010 04:00 8,9 C -5,5 C 0,0 UV-I 0,0 C 41 % 90 % 0 % 1000,4 hPa 0,0 l/m 0,1 km/h (0 Bft) 0,00 h 0,1 km/h (0 Bft)
06.01.2010 05:00 8,8 C -5,7 C 0,0 UV-I 0,0 C 41 % 90 % 0 % 1000,4 hPa 0,0 l/m 2,5 km/h (1 Bft) 0,00 h 3,5 km/h (1 Bft)
06.01.2010 06:00 8,8 C -5,8 C 0,0 UV-I 0,0 C 40 % 90 % 0 % 1000,0 hPa 0,0 l/m 1,7 km/h (1 Bft) 0,00 h 2,6 km/h (1 Bft)
06.01.2010 07:00 8,6 C -6,1 C 0,0 UV-I 0,0 C 40 % 90 % 0 % 1000,1 hPa 0,0 l/m 3,2 km/h (1 Bft) 0,00 h 4,9 km/h (1 Bft)
06.01.2010 08:00 8,6 C -6,3 C 0,0 UV-I 0,0 C 40 % 90 % 0 % 1000,2 hPa 0,0 l/m 0,8 km/h (0 Bft) 0,00 h 0,9 km/h (0 Bft)
06.01.2010 09:00 8,4 C -6,6 C 0,0 UV-I 0,0 C 40 % 90 % 0 % 1000,2 hPa 0,0 l/m 0,0 km/h (0 Bft) 0,00 h 0,2 km/h (0 Bft)
06.01.2010 10:00 8,5 C -6,1 C 0,0 UV-I 3,1 C 40 % 91 % 49 % 1001,2 hPa 0,0 l/m 1,3 km/h (1 Bft) 0,37 h 2,3 km/h (1 Bft)
06.01.2010 11:00 8,7 C -4,1 C 0,0 UV-I 5,2 C 39 % 89 % 95 % 1001,2 hPa 0,0 l/m 1,7 km/h (1 Bft) 0,90 h 2,5 km/h (1 Bft)
06.01.2010 12:00 9,0 C -2,7 C 0,0 UV-I 1,5 C 39 % 86 % 43 % 1001,0 hPa 0,0 l/m 0,7 km/h (0 Bft) 0,10 h 0,9 km/h (0 Bft)
06.01.2010 13:00 9,3 C -1,8 C 0,0 UV-I 1,4 C 39 % 83 % 40 % 1001,1 hPa 0,0 l/m 0,2 km/h (0 Bft) 0,03 h 0,1 km/h (0 Bft)
06.01.2010 14:00 9,5 C -1,4 C 0,0 UV-I 0,4 C 39 % 81 % 11 % 1001,2 hPa 0,0 l/m 0,8 km/h (0 Bft) 0,00 h 1,5 km/h (1 Bft)
06.01.2010 15:00 9,4 C -1,2 C 0,0 UV-I 0,0 C 39 % 82 % 0 % 1001,1 hPa 0,0 l/m 0,0 km/h (0 Bft) 0,00 h 0,0 km/h (0 Bft)
06.01.2010 16:00 9,3 C -1,4 C 0,0 UV-I 0,0 C 40 % 82 % 0 % 1001,2 hPa 0,0 l/m 0,1 km/h (0 Bft) 0,00 h 0,1 km/h (0 Bft)
06.01.2010 17:00 9,1 C -2,4 C 0,0 UV-I 0,0 C 40 % 85 % 0 % 1001,6 hPa 0,0 l/m 0,0 km/h (0 Bft) 0,00 h 0,0 km/h (0 Bft)
06.01.2010 18:00 9,0 C -3,1 C 0,0 UV-I 0,0 C 41 % 87 % 0 % 1001,6 hPa 0,0 l/m 0,0 km/h (0 Bft) 0,00 h 0,0 km/h (0 Bft)
06.01.2010 19:00 8,8 C -3,9 C 0,0 UV-I 0,0 C 41 % 88 % 0 % 1001,7 hPa 0,0 l/m 0,0 km/h (0 Bft) 0,00 h 0,0 km/h (0 Bft)
06.01.2010 20:00 8,8 C -4,1 C 0,0 UV-I 0,0 C 41 % 90 % 0 % 1002,1 hPa 0,0 l/m 0,0 km/h (0 Bft) 0,00 h 0,0 km/h (0 Bft)
06.01.2010 21:00 8,8 C -4,5 C 0,0 UV-I 0,0 C 41 % 90 % 0 % 1002,5 hPa 0,0 l/m 0,0 km/h (0 Bft) 0,00 h 0,0 km/h (0 Bft)
06.01.2010 22:00 8,7 C -4,7 C 0,0 UV-I 0,0 C 41 % 91 % 0 % 1002,7 hPa 0,0 l/m 0,0 km/h (0 Bft) 0,00 h 0,1 km/h (0 Bft)
06.01.2010 23:00 8,7 C -4,4 C 0,0 UV-I 0,0 C 42 % 92 % 0 % 1003,1 hPa 0,0 l/m 0,0 km/h (0 Bft) 0,00 h 0,0 km/h (0 Bft)
07.01.2010 00:00 8,8 C -4,0 C 0,0 UV-I 0,0 C 42 % 93 % 0 % 1003,3 hPa 0,0 l/m 0,0 km/h (0 Bft) 0,00 h 0,0 km/h (0 Bft)
07.01.2010 01:00 8,8 C -3,7 C 0,0 UV-I 0,0 C 42 % 93 % 0 % 1003,3 hPa 0,0 l/m 0,1 km/h (0 Bft) 0,00 h 0,3 km/h (0 Bft)
07.01.2010 02:00 8,9 C -3,5 C 0,0 UV-I 0,0 C 42 % 92 % 0 % 1003,6 hPa 0,0 l/m 0,1 km/h (0 Bft) 0,00 h 0,0 km/h (0 Bft)
07.01.2010 03:00 8,9 C -3,3 C 0,0 UV-I 0,0 C 43 % 93 % 0 % 1003,5 hPa 0,0 l/m 0,0 km/h (0 Bft) 0,00 h 0,0 km/h (0 Bft)
07.01.2010 04:00 9,0 C -3,2 C 0,0 UV-I 0,0 C 43 % 93 % 0 % 1003,8 hPa 0,2 l/m 0,0 km/h (0 Bft) 0,00 h 0,0 km/h (0 Bft)
07.01.2010 05:00 9,0 C -3,1 C 0,0 UV-I 0,0 C 44 % 93 % 0 % 1004,1 hPa 0,0 l/m 0,0 km/h (0 Bft) 0,00 h 0,0 km/h (0 Bft)
07.01.2010 06:00 8,9 C -3,3 C 0,0 UV-I 0,0 C 44 % 93 % 0 % 1004,2 hPa 0,0 l/m 0,0 km/h (0 Bft) 0,00 h 0,0 km/h (0 Bft)
07.01.2010 07:00 8,8 C -3,3 C 0,0 UV-I 0,0 C 43 % 93 % 0 % 1004,7 hPa 0,0 l/m 0,0 km/h (0 Bft) 0,00 h 0,0 km/h (0 Bft)
07.01.2010 08:00 8,8 C -3,6 C 0,0 UV-I 0,0 C 43 % 92 % 0 % 1005,3 hPa 0,0 l/m 0,0 km/h (0 Bft) 0,00 h 0,0 km/h (0 Bft)
07.01.2010 09:00 8,8 C -4,1 C 0,0 UV-I 0,0 C 43 % 92 % 0 % 1005,8 hPa 0,0 l/m 0,0 km/h (0 Bft) 0,00 h 0,0 km/h (0 Bft)
07.01.2010 10:00 8,8 C -3,8 C 0,0 UV-I 1,9 C 42 % 92 % 44 % 1006,4 hPa 0,0 l/m 0,0 km/h (0 Bft) 0,40 h 0,2 km/h (0 Bft)
07.01.2010 11:00 8,9 C -2,9 C 0,0 UV-I 5,5 C 42 % 90 % 100 % 1006,9 hPa 0,0 l/m 0,3 km/h (0 Bft) 0,97 h 1,0 km/h (0 Bft)
07.01.2010 12:00 9,1 C -1,6 C 0,0 UV-I 4,6 C 41 % 87 % 100 % 1007,2 hPa 0,1 l/m 0,6 km/h (0 Bft) 0,90 h 1,4 km/h (1 Bft)
07.01.2010 13:00 9,3 C -1,0 C 0,0 UV-I 4,7 C 41 % 85 % 100 % 1007,7 hPa 0,2 l/m 0,7 km/h (0 Bft) 0,92 h 0,9 km/h (0 Bft)
07.01.2010 14:00 10,2 C -0,3 C 0,0 UV-I 3,8 C 40 % 82 % 98 % 1008,2 hPa 0,9 l/m 0,3 km/h (0 Bft) 1,00 h 0,5 km/h (0 Bft)
07.01.2010 15:00 10,1 C -1,3 C 0,0 UV-I 0,7 C 39 % 82 % 20 % 1008,4 hPa 0,1 l/m 0,0 km/h (0 Bft) 0,30 h 0,1 km/h (0 Bft)
07.01.2010 16:00 9,6 C -2,4 C 0,0 UV-I 0,0 C 40 % 84 % 0 % 1008,6 hPa 0,0 l/m 0,0 km/h (0 Bft) 0,00 h 0,0 km/h (0 Bft)
07.01.2010 17:00 9,0 C -3,8 C 0,0 UV-I 0,0 C 40 % 85 % 0 % 1008,9 hPa 0,0 l/m 0,0 km/h (0 Bft) 0,00 h 0,0 km/h (0 Bft)
07.01.2010 18:00 8,7 C -5,1 C 0,0 UV-I 0,0 C 40 % 87 % 0 % 1009,6 hPa 0,0 l/m 0,0 km/h (0 Bft) 0,00 h 0,0 km/h (0 Bft)
07.01.2010 19:00 8,4 C -6,4 C 0,0 UV-I 0,0 C 40 % 86 % 0 % 1010,2 hPa 0,0 l/m 0,0 km/h (0 Bft) 0,00 h 0,0 km/h (0 Bft)
07.01.2010 20:00 8,2 C -7,5 C 0,0 UV-I 0,0 C 39 % 87 % 0 % 1010,6 hPa 0,0 l/m 0,0 km/h (0 Bft) 0,00 h 0,0 km/h (0 Bft)
07.01.2010 21:00 8,0 C -8,4 C 0,0 UV-I 0,0 C 39 % 88 % 0 % 1011,2 hPa 0,0 l/m 0,0 km/h (0 Bft) 0,00 h 0,0 km/h (0 Bft)
07.01.2010 22:00 7,8 C -9,0 C 0,0 UV-I 0,0 C 38 % 89 % 0 % 1011,8 hPa 0,0 l/m 0,0 km/h (0 Bft) 0,00 h 0,0 km/h (0 Bft)
07.01.2010 23:00 7,7 C -9,6 C 0,0 UV-I 0,0 C 38 % 89 % 0 % 1012,0 hPa 0,0 l/m 0,0 km/h (0 Bft) 0,00 h 0,0 km/h (0 Bft)
08.01.2010 00:00 7,6 C -9,2 C 0,0 UV-I 0,0 C 38 % 91 % 0 % 1012,6 hPa 0,0 l/m 0,0 km/h (0 Bft) 0,00 h 0,0 km/h (0 Bft)
08.01.2010 01:00 7,8 C -7,7 C 0,0 UV-I 0,3 C 39 % 92 % 0 % 1012,9 hPa 0,0 l/m 0,0 km/h (0 Bft) 0,00 h 0,1 km/h (0 Bft)
08.01.2010 02:00 7,9 C -6,3 C 0,0 UV-I 0,8 C 40 % 93 % 0 % 1013,7 hPa 0,0 l/m 0,0 km/h (0 Bft) 0,00 h 0,0 km/h (0 Bft)
08.01.2010 03:00 8,2 C -4,7 C 0,0 UV-I 0,1 C 41 % 94 % 0 % 1013,9 hPa 0,0 l/m 0,0 km/h (0 Bft) 0,00 h 0,0 km/h (0 Bft)
08.01.2010 04:00 8,3 C -3,8 C 0,0 UV-I 0,0 C 42 % 94 % 0 % 1014,7 hPa 0,0 l/m 0,1 km/h (0 Bft) 0,00 h 0,2 km/h (0 Bft)
08.01.2010 05:00 8,4 C -3,6 C 0,0 UV-I 0,0 C 42 % 94 % 0 % 1014,7 hPa 0,0 l/m 0,1 km/h (0 Bft) 0,00 h 0,3 km/h (0 Bft)
08.01.2010 06:00 8,3 C -3,4 C 0,0 UV-I 0,0 C 42 % 93 % 0 % 1014,8 hPa 0,0 l/m 0,0 km/h (0 Bft) 0,00 h 0,0 km/h (0 Bft)
08.01.2010 07:00 8,3 C -3,3 C 0,0 UV-I 0,0 C 42 % 94 % 0 % 1015,0 hPa 0,0 l/m 0,0 km/h (0 Bft) 0,00 h 0,1 km/h (0 Bft)
08.01.2010 08:00 8,4 C -3,3 C 0,0 UV-I 0,0 C 43 % 94 % 0 % 1015,7 hPa 0,0 l/m 0,1 km/h (0 Bft) 0,00 h 0,5 km/h (0 Bft)
08.01.2010 09:00 8,4 C -2,9 C 0,0 UV-I 0,0 C 42 % 92 % 0 % 1015,8 hPa 0,0 l/m 0,2 km/h (0 Bft) 0,00 h 0,5 km/h (0 Bft)
08.01.2010 10:00 8,5 C -2,4 C 0,0 UV-I 0,0 C 42 % 90 % 0 % 1016,6 hPa 0,0 l/m 0,0 km/h (0 Bft) 0,00 h 0,1 km/h (0 Bft)
08.01.2010 11:00 8,8 C -2,1 C 0,0 UV-I 0,0 C 42 % 89 % 0 % 1016,8 hPa 0,0 l/m 0,9 km/h (0 Bft) 0,00 h 1,8 km/h (1 Bft)
08.01.2010 12:00 9,2 C -2,0 C 0,0 UV-I 0,1 C 44 % 87 % 4 % 1016,7 hPa 0,0 l/m 1,2 km/h (1 Bft) 0,00 h 2,0 km/h (1 Bft)
08.01.2010 13:00 9,6 C -1,6 C 0,0 UV-I 1,2 C 44 % 83 % 35 % 1016,5 hPa 0,1 l/m 2,3 km/h (1 Bft) 0,12 h 4,0 km/h (1 Bft)
08.01.2010 14:00 9,6 C -2,0 C 0,0 UV-I 0,1 C 42 % 83 % 4 % 1016,4 hPa 0,0 l/m 1,6 km/h (1 Bft) 0,00 h 2,8 km/h (1 Bft)
08.01.2010 15:00 9,4 C -2,4 C 0,0 UV-I 0,0 C 40 % 82 % 0 % 1016,5 hPa 0,0 l/m 2,0 km/h (1 Bft) 0,00 h 3,4 km/h (1 Bft)
08.01.2010 16:00 9,1 C -3,0 C 0,0 UV-I 0,0 C 40 % 83 % 0 % 1016,3 hPa 0,0 l/m 1,5 km/h (1 Bft) 0,00 h 2,9 km/h (1 Bft)
08.01.2010 17:00 8,8 C -3,2 C 0,0 UV-I 0,0 C 41 % 86 % 0 % 1016,5 hPa 0,0 l/m 2,3 km/h (1 Bft) 0,00 h 3,8 km/h (1 Bft)
08.01.2010 18:00 8,7 C -2,8 C 0,0 UV-I 0,0 C 41 % 86 % 0 % 1016,6 hPa 0,0 l/m 3,1 km/h (1 Bft) 0,00 h 5,2 km/h (1 Bft)
08.01.2010 19:00 8,7 C -2,7 C 0,0 UV-I 0,0 C 41 % 86 % 0 % 1016,6 hPa 0,0 l/m 3,0 km/h (1 Bft) 0,00 h 5,5 km/h (1 Bft)
08.01.2010 20:00 8,7 C -2,8 C 0,0 UV-I 0,0 C 41 % 85 % 0 % 1016,6 hPa 0,0 l/m 2,7 km/h (1 Bft) 0,00 h 3,6 km/h (1 Bft)
08.01.2010 21:00 8,6 C -3,0 C 0,0 UV-I 0,0 C 41 % 84 % 0 % 1016,5 hPa 0,0 l/m 3,2 km/h (1 Bft) 0,00 h 5,4 km/h (1 Bft)
08.01.2010 22:00 8,6 C -3,1 C 0,0 UV-I 0,0 C 41 % 85 % 0 % 1016,6 hPa 0,0 l/m 5,2 km/h (1 Bft) 0,00 h 7,4 km/h (2 Bft)
08.01.2010 23:00 8,5 C -2,7 C 0,0 UV-I 0,0 C 41 % 85 % 0 % 1016,5 hPa 0,0 l/m 4,1 km/h (1 Bft) 0,00 h 5,1 km/h (1 Bft)
09.01.2010 00:00 8,6 C -2,4 C 0,0 UV-I 0,0 C 41 % 84 % 0 % 1015,6 hPa 0,0 l/m 4,5 km/h (1 Bft) 0,00 h 6,3 km/h (2 Bft)
09.01.2010 01:00 8,7 C -2,1 C 0,0 UV-I 0,0 C 41 % 84 % 0 % 1015,6 hPa 0,0 l/m 4,0 km/h (1 Bft) 0,00 h 7,6 km/h (2 Bft)
09.01.2010 02:00 8,7 C -2,0 C 0,0 UV-I 0,0 C 41 % 82 % 0 % 1015,4 hPa 0,0 l/m 4,3 km/h (1 Bft) 0,00 h 5,5 km/h (1 Bft)
09.01.2010 03:00 8,8 C -1,8 C 0,0 UV-I 0,0 C 41 % 82 % 0 % 1015,2 hPa 0,0 l/m 3,4 km/h (1 Bft) 0,00 h 4,8 km/h (1 Bft)
09.01.2010 04:00 8,8 C -1,7 C 0,0 UV-I 0,0 C 41 % 84 % 0 % 1014,9 hPa 0,0 l/m 5,1 km/h (1 Bft) 0,00 h 7,0 km/h (2 Bft)
09.01.2010 05:00 8,8 C -1,9 C 0,0 UV-I 0,0 C 42 % 84 % 0 % 1014,8 hPa 0,0 l/m 4,5 km/h (1 Bft) 0,00 h 5,6 km/h (1 Bft)
09.01.2010 06:00 8,8 C -2,1 C 0,0 UV-I 0,0 C 42 % 85 % 0 % 1014,3 hPa 0,0 l/m 5,1 km/h (1 Bft) 0,00 h 6,6 km/h (2 Bft)
09.01.2010 07:00 8,7 C -2,1 C 0,0 UV-I 0,0 C 42 % 86 % 0 % 1013,8 hPa 0,0 l/m 5,2 km/h (1 Bft) 0,00 h 6,6 km/h (2 Bft)
09.01.2010 08:00 8,7 C -2,1 C 0,0 UV-I 0,0 C 42 % 88 % 0 % 1013,7 hPa 0,0 l/m 5,4 km/h (1 Bft) 0,00 h 7,9 km/h (2 Bft)
09.01.2010 09:00 8,7 C -2,4 C 0,0 UV-I 0,0 C 43 % 89 % 0 % 1013,2 hPa 0,0 l/m 6,0 km/h (2 Bft) 0,00 h 8,5 km/h (2 Bft)
09.01.2010 10:00 8,7 C -2,1 C 0,0 UV-I 0,0 C 43 % 90 % 0 % 1013,4 hPa 0,0 l/m 6,0 km/h (2 Bft) 0,00 h 8,2 km/h (2 Bft)
09.01.2010 11:00 8,8 C -1,8 C 0,0 UV-I 0,0 C 44 % 91 % 0 % 1013,0 hPa 0,0 l/m 5,4 km/h (1 Bft) 0,00 h 7,2 km/h (2 Bft)
09.01.2010 12:00 8,8 C -1,3 C 0,0 UV-I 0,0 C 45 % 92 % 0 % 1012,9 hPa 0,0 l/m 4,2 km/h (1 Bft) 0,00 h 5,9 km/h (2 Bft)
09.01.2010 13:00 9,0 C -0,9 C 0,0 UV-I 0,0 C 46 % 93 % 0 % 1012,4 hPa 0,0 l/m 3,1 km/h (1 Bft) 0,00 h 4,2 km/h (1 Bft)
09.01.2010 14:00 9,0 C -0,8 C 0,0 UV-I 0,0 C 46 % 93 % 0 % 1011,5 hPa 0,0 l/m 1,8 km/h (1 Bft) 0,00 h 3,0 km/h (1 Bft)
09.01.2010 15:00 9,1 C -0,6 C 0,0 UV-I 0,0 C 47 % 93 % 0 % 1010,9 hPa 0,0 l/m 1,0 km/h (0 Bft) 0,00 h 1,6 km/h (1 Bft)
09.01.2010 16:00 9,1 C -0,5 C 0,0 UV-I 0,0 C 47 % 93 % 0 % 1011,0 hPa 0,0 l/m 0,7 km/h (0 Bft) 0,00 h 1,9 km/h (1 Bft)
09.01.2010 17:00 9,0 C -0,5 C 0,0 UV-I 0,0 C 47 % 91 % 0 % 1011,2 hPa 0,0 l/m 0,9 km/h (0 Bft) 0,00 h 2,3 km/h (1 Bft)
09.01.2010 18:00 9,0 C -0,5 C 0,0 UV-I 0,0 C 46 % 88 % 0 % 1011,0 hPa 0,0 l/m 1,5 km/h (1 Bft) 0,00 h 2,3 km/h (1 Bft)
09.01.2010 19:00 9,0 C -0,5 C 0,0 UV-I 0,0 C 45 % 87 % 0 % 1010,6 hPa 0,0 l/m 2,0 km/h (1 Bft) 0,00 h 3,1 km/h (1 Bft)
09.01.2010 20:00 8,9 C -0,5 C 0,0 UV-I 0,0 C 45 % 86 % 0 % 1010,5 hPa 0,0 l/m 1,7 km/h (1 Bft) 0,00 h 2,9 km/h (1 Bft)
09.01.2010 21:00 9,0 C -0,7 C 0,0 UV-I 0,0 C 45 % 85 % 0 % 1010,4 hPa 0,0 l/m 1,4 km/h (1 Bft) 0,00 h 2,2 km/h (1 Bft)
09.01.2010 22:00 9,0 C -0,7 C 0,0 UV-I 0,0 C 44 % 84 % 0 % 1010,3 hPa 0,0 l/m 1,4 km/h (1 Bft) 0,00 h 2,4 km/h (1 Bft)
09.01.2010 23:00 9,1 C -0,8 C 0,0 UV-I 0,0 C 44 % 84 % 0 % 1010,2 hPa 0,0 l/m 0,9 km/h (0 Bft) 0,00 h 1,7 km/h (1 Bft)
10.01.2010 00:00 9,1 C -0,9 C 0,0 UV-I 0,0 C 44 % 84 % 0 % 1010,1 hPa 0,0 l/m 1,1 km/h (1 Bft) 0,00 h 2,3 km/h (1 Bft)
10.01.2010 01:00 9,1 C -0,9 C 0,0 UV-I 0,0 C 44 % 84 % 0 % 1009,9 hPa 0,0 l/m 1,1 km/h (0 Bft) 0,00 h 2,3 km/h (1 Bft)
10.01.2010 02:00 9,1 C -0,9 C 0,0 UV-I 0,0 C 44 % 84 % 0 % 1009,7 hPa 0,0 l/m 1,6 km/h (1 Bft) 0,00 h 2,7 km/h (1 Bft)
10.01.2010 03:00 9,1 C -0,9 C 0,0 UV-I 0,0 C 44 % 84 % 0 % 1009,5 hPa 0,0 l/m 1,8 km/h (1 Bft) 0,00 h 2,7 km/h (1 Bft)
10.01.2010 04:00 9,1 C -0,9 C 0,0 UV-I 0,0 C 44 % 85 % 0 % 1009,5 hPa 0,0 l/m 1,0 km/h (0 Bft) 0,00 h 1,7 km/h (1 Bft)
10.01.2010 05:00 9,2 C -1,0 C 0,0 UV-I 0,0 C 44 % 85 % 0 % 1009,8 hPa 0,0 l/m 1,0 km/h (0 Bft) 0,00 h 1,5 km/h (1 Bft)
10.01.2010 06:00 9,2 C -1,1 C 0,0 UV-I 0,0 C 44 % 86 % 0 % 1010,0 hPa 0,0 l/m 0,4 km/h (0 Bft) 0,00 h 0,6 km/h (0 Bft)
10.01.2010 07:00 9,2 C -1,1 C 0,0 UV-I 0,0 C 44 % 86 % 0 % 1010,3 hPa 0,0 l/m 0,3 km/h (0 Bft) 0,00 h 0,6 km/h (0 Bft)
10.01.2010 08:00 9,2 C -1,2 C 0,0 UV-I 0,0 C 44 % 87 % 0 % 1010,8 hPa 0,0 l/m 0,1 km/h (0 Bft) 0,00 h 0,5 km/h (0 Bft)
10.01.2010 09:00 9,2 C -1,3 C 0,0 UV-I 0,0 C 45 % 89 % 0 % 1011,2 hPa 0,0 l/m 0,0 km/h (0 Bft) 0,00 h 0,0 km/h (0 Bft)
10.01.2010 10:00 9,1 C -1,0 C 0,0 UV-I 0,1 C 45 % 89 % 3 % 1011,9 hPa 0,0 l/m 0,2 km/h (0 Bft) 0,00 h 0,2 km/h (0 Bft)
10.01.2010 11:00 9,5 C -0,2 C 0,0 UV-I 1,5 C 45 % 88 % 43 % 1012,4 hPa 0,0 l/m 0,4 km/h (0 Bft) 0,03 h 0,9 km/h (0 Bft)
10.01.2010 12:00 9,8 C 0,4 C 0,0 UV-I 1,3 C 45 % 86 % 38 % 1012,8 hPa 0,0 l/m 0,6 km/h (0 Bft) 0,00 h 0,9 km/h (0 Bft)
10.01.2010 13:00 10,0 C 0,8 C 0,0 UV-I 2,7 C 45 % 84 % 71 % 1012,8 hPa 0,0 l/m 0,4 km/h (0 Bft) 0,53 h 0,9 km/h (0 Bft)
10.01.2010 14:00 10,7 C 1,0 C 0,0 UV-I 2,2 C 43 % 82 % 56 % 1013,2 hPa 0,5 l/m 0,3 km/h (0 Bft) 0,33 h 0,6 km/h (0 Bft)
10.01.2010 15:00 10,4 C 0,7 C 0,0 UV-I 0,3 C 43 % 82 % 8 % 1013,3 hPa 0,2 l/m 0,0 km/h (0 Bft) 0,00 h 0,0 km/h (0 Bft)
10.01.2010 16:00 10,1 C 0,3 C 0,0 UV-I 0,0 C 43 % 82 % 0 % 1013,5 hPa 0,0 l/m 0,0 km/h (0 Bft) 0,00 h 0,0 km/h (0 Bft)
10.01.2010 17:00 9,9 C -0,1 C 0,0 UV-I 0,0 C 44 % 84 % 0 % 1013,4 hPa 0,1 l/m 0,0 km/h (0 Bft) 0,00 h 0,0 km/h (0 Bft)
10.01.2010 18:00 9,6 C -0,2 C 0,0 UV-I 0,0 C 44 % 85 % 0 % 1013,6 hPa 0,0 l/m 0,0 km/h (0 Bft) 0,00 h 0,1 km/h (0 Bft)
10.01.2010 19:00 9,6 C -0,3 C 0,0 UV-I 0,0 C 44 % 85 % 0 % 1014,1 hPa 0,0 l/m 0,1 km/h (0 Bft) 0,00 h 0,1 km/h (0 Bft)
10.01.2010 20:00 9,6 C -0,4 C 0,0 UV-I 0,0 C 44 % 85 % 0 % 1014,5 hPa 0,0 l/m 0,0 km/h (0 Bft) 0,00 h 0,1 km/h (0 Bft)
10.01.2010 21:00 9,6 C -0,5 C 0,0 UV-I 0,0 C 44 % 85 % 0 % 1014,9 hPa 0,0 l/m 0,0 km/h (0 Bft) 0,00 h 0,0 km/h (0 Bft)
10.01.2010 22:00 9,6 C -0,5 C 0,0 UV-I 0,0 C 44 % 86 % 0 % 1015,0 hPa 0,0 l/m 0,0 km/h (0 Bft) 0,00 h 0,0 km/h (0 Bft)
10.01.2010 23:00 9,6 C -0,5 C 0,0 UV-I 0,0 C 45 % 86 % 0 % 1015,2 hPa 0,0 l/m 0,0 km/h (0 Bft) 0,00 h 0,0 km/h (0 Bft)
Min-Datum _ 07.01.10 07.01.10 04.01.10 04.01.10 04.01.10 06.01.10 04.01.10 06.01.10 - 04.01.10 - 04.01.10
_ Min-Zeit 23:32 23:32 00:00 00:00 14:16 14:02 00:00 06:14 - 00:00 - 00:00
Minimum _ 7,6 C -9,7 C 0,0 UV-I 0,0 C 38 % 81 % 0 % 999,6 hPa - 0,0 km/h (0 Bft) - 0,0 km/h (0 Bft)
Max-Datum _ 10.01.10 10.01.10 06.01.10 06.01.10 09.01.10 08.01.10 04.01.10 04.01.10 07.01.10 09.01.10 04.01.10 09.01.10
_ Max-Zeit 14:28 13:56 11:00 11:00 15:18 02:58 13:16 00:00 14:04 09:06 13:10 01:18
Maximum _ 10,8 C 1,3 C 0,1 UV-I 9,0 C 47 % 94 % 100 % 1020,2 hPa 0,9 l/m 7,2 km/h
S (2 Bft)
0,03 h 45,3 km/h
S (6 Bft)
Durchschnitt _ 9,2 C -2,7 C 0,0 UV-I 0,3 C 42 % 88 % 7 % 1009,8 hPa #2,6 l/m 1,2 km/h (1 Bft) #8:15 h 1,9 km/h (1 Bft)
© 2012 W. Hausmann